Pine Neck, New York
Current Conditions -  °F | °C
As of 2:53 AM on Saturday 20 Dec 2014 (Local Time) from KFOK Reporting Station
Overcast Overcast  
Wind Chill: 26°   Ceiling: 2600
Heat Index: 32°   Visibility: 10mi
Dew Point: 21°   Wind: 7mph
Humidity: 64%   Direction: 350°N
Pressure: 30.19"   Gusts: NA
Location:  40.9692°N, 72.306°W
Report Text: KFOK 200753Z AUTO 35006KT 10SM OVC026 00/M06 A3019 RMK AO2 SLP225 T00001061 TSNO
Loading
Personal Weather Stations






























Interactive Weather Map New forecast layout! Learn more

10-Day Weather Forecast

Advertisements
Track Severe Weather on mobile